Time;durP1;ratioP1;P1;durP2;ratioP2;P2;SDS_P1;SDS_P2;PMS_P1;PMS_P2;Temp;Humidity;BMP_temperature;BMP_pressure;BME280_temperature;BME280_humidity;BME280_pressure;Samples;Min_cycle;Max_cycle;Signal;HPM_P1;HPM_P2
2021/01/12 00:00:12;;;;;;;23.40;4.80;;;8.30;99.90;;;;;;5011082;28;20942;-89
2021/01/12 00:02:38;;;;;;;23.50;5.10;;;8.20;99.90;;;;;;5011346;28;20257;-91
2021/01/12 00:05:12;;;;;;;36.00;6.83;;;8.30;99.90;;;;;;5010156;28;20199;-89
2021/01/12 00:07:39;;;;;;;23.37;5.10;;;8.30;99.90;;;;;;5010532;28;20255;-89
2021/01/12 00:10:08;;;;;;;30.63;6.47;;;8.30;99.90;;;;;;5011033;28;20546;-88
2021/01/12 00:12:34;;;;;;;33.23;5.73;;;8.30;99.90;;;;;;5009873;28;20211;-88
2021/01/12 00:15:01;;;;;;;23.40;6.10;;;8.30;99.90;;;;;;5010127;28;20281;-90
2021/01/12 00:17:27;;;;;;;29.90;6.17;;;8.20;99.90;;;;;;5010513;28;20203;-86
2021/01/12 00:19:54;;;;;;;27.93;6.83;;;8.30;99.90;;;;;;5010567;28;20234;-91
2021/01/12 00:22:20;;;;;;;29.63;5.87;;;8.30;99.90;;;;;;5011682;28;20849;-87
2021/01/12 00:24:47;;;;;;;33.57;7.10;;;8.30;99.90;;;;;;5014802;28;20487;-90
2021/01/12 00:27:16;;;;;;;33.40;6.10;;;8.30;99.90;;;;;;5013944;28;20203;-81
2021/01/12 00:29:43;;;;;;;20.27;5.73;;;8.20;99.90;;;;;;5012962;28;20207;-90
2021/01/12 00:32:14;;;;;;;38.43;7.27;;;8.20;99.90;;;;;;5014437;28;20230;-87
2021/01/12 00:34:41;;;;;;;35.50;7.53;;;8.20;99.90;;;;;;5013575;28;20245;-88
2021/01/12 00:37:07;;;;;;;34.27;7.53;;;8.20;99.90;;;;;;5012919;28;20203;-87
2021/01/12 00:39:33;;;;;;;41.13;9.23;;;8.30;99.90;;;;;;5014067;28;20208;-91
2021/01/12 00:42:00;;;;;;;41.00;10.80;;;8.20;99.90;;;;;;5014230;28;20206;-88
2021/01/12 00:44:27;;;;;;;30.33;9.47;;;8.30;99.90;;;;;;5013633;28;20199;-88
2021/01/12 00:46:54;;;;;;;35.90;11.47;;;8.30;99.90;;;;;;5013593;28;20250;-87
2021/01/12 00:49:22;;;;;;;35.90;12.03;;;8.30;99.90;;;;;;5013703;28;20298;-91
2021/01/12 00:51:48;;;;;;;42.73;12.57;;;8.30;99.90;;;;;;5013570;28;20510;-90
2021/01/12 00:54:16;;;;;;;40.40;12.07;;;8.30;99.90;;;;;;5013251;28;20250;-86
2021/01/12 00:56:43;;;;;;;34.80;11.27;;;8.40;99.90;;;;;;5014095;28;20203;-90
2021/01/12 00:59:10;;;;;;;38.37;11.83;;;8.40;99.90;;;;;;5013216;28;20603;-90
2021/01/12 01:01:38;;;;;;;40.43;11.43;;;8.50;99.90;;;;;;5013857;28;20203;-90
2021/01/12 01:04:05;;;;;;;33.87;12.07;;;8.50;99.90;;;;;;5013956;28;20199;-89
2021/01/12 01:06:31;;;;;;;30.03;10.50;;;8.50;99.90;;;;;;5013546;28;20195;-86
2021/01/12 01:08:58;;;;;;;35.73;9.60;;;8.50;99.90;;;;;;5014152;28;20203;-90
2021/01/12 01:11:29;;;;;;;30.03;8.60;;;8.50;99.90;;;;;;5012627;28;20202;-86
2021/01/12 01:13:57;;;;;;;21.33;7.47;;;8.50;99.90;;;;;;5013554;28;20227;-90
2021/01/12 01:16:30;;;;;;;25.83;7.57;;;8.50;99.90;;;;;;5013256;28;20203;-88
2021/01/12 01:18:57;;;;;;;25.10;6.40;;;8.50;99.90;;;;;;5012763;28;20190;-90
2021/01/12 01:21:24;;;;;;;26.27;6.37;;;8.50;99.90;;;;;;5013551;28;20213;-90
2021/01/12 01:23:50;;;;;;;32.47;8.13;;;8.60;99.90;;;;;;5012980;28;20207;-88
2021/01/12 01:26:17;;;;;;;31.67;6.23;;;8.60;99.90;;;;;;5013624;28;20206;-88
2021/01/12 01:28:43;;;;;;;27.33;5.97;;;8.60;99.90;;;;;;5012750;28;20592;-89
2021/01/12 01:31:10;;;;;;;27.50;5.60;;;8.60;99.90;;;;;;5010044;28;20269;-89
2021/01/12 01:33:36;;;;;;;30.03;5.80;;;8.70;99.90;;;;;;4992873;28;20216;-86
2021/01/12 01:36:04;;;;;;;23.17;5.00;;;8.70;99.90;;;;;;4993041;28;20204;-84
2021/01/12 01:38:31;;;;;;;35.83;6.90;;;8.70;99.90;;;;;;4993175;28;20208;-87
2021/01/12 01:40:58;;;;;;;27.37;5.30;;;8.70;99.90;;;;;;4993674;28;20211;-89
2021/01/12 01:43:24;;;;;;;20.73;5.70;;;8.70;99.90;;;;;;4993908;28;20215;-88
2021/01/12 01:45:51;;;;;;;30.80;6.40;;;8.70;99.90;;;;;;4993756;28;20215;-88
2021/01/12 01:48:18;;;;;;;34.30;6.10;;;8.70;99.90;;;;;;4993241;28;20232;-88
2021/01/12 01:50:44;;;;;;;31.97;5.60;;;8.80;99.90;;;;;;4992931;28;20879;-88
2021/01/12 01:53:14;;;;;;;20.67;4.70;;;8.80;99.90;;;;;;4992057;28;20212;-88
2021/01/12 01:55:41;;;;;;;25.80;6.50;;;8.80;99.90;;;;;;4993405;28;20200;-87
2021/01/12 01:58:08;;;;;;;28.73;6.13;;;8.80;99.90;;;;;;4993004;28;20202;-86
2021/01/12 02:00:35;;;;;;;28.97;5.10;;;8.80;99.90;;;;;;4991854;28;20282;-85
2021/01/12 02:03:10;;;;;;;23.20;4.77;;;8.80;99.90;;;;;;4993425;28;20207;-86
2021/01/12 02:05:39;;;;;;;30.23;5.67;;;8.80;99.90;;;;;;4993236;28;20209;-89
2021/01/12 02:08:08;;;;;;;24.23;5.70;;;8.80;99.90;;;;;;4992787;28;20200;-91
2021/01/12 02:10:42;;;;;;;24.40;5.33;;;8.80;99.90;;;;;;4993707;28;20297;-89
2021/01/12 02:13:13;;;;;;;28.40;5.83;;;8.80;99.90;;;;;;4988615;28;20237;-87
2021/01/12 02:15:40;;;;;;;38.33;6.10;;;8.80;99.90;;;;;;4973988;28;20314;-91
2021/01/12 02:18:07;;;;;;;33.93;5.70;;;8.80;99.90;;;;;;4974758;28;20205;-87
2021/01/12 02:20:34;;;;;;;28.60;5.83;;;8.90;99.90;;;;;;4974065;28;20212;-90
2021/01/12 02:23:06;;;;;;;26.63;5.53;;;8.90;99.90;;;;;;4974265;28;20259;-89
2021/01/12 02:25:36;;;;;;;32.13;6.00;;;8.80;99.90;;;;;;4975130;28;20582;-88
2021/01/12 02:28:04;;;;;;;26.40;5.20;;;8.80;99.90;;;;;;4971742;28;20291;-89
2021/01/12 02:30:31;;;;;;;25.70;6.03;;;8.80;99.90;;;;;;4968416;28;20209;-90
2021/01/12 02:32:57;;;;;;;24.43;5.03;;;8.90;99.90;;;;;;4969154;28;20205;-88
2021/01/12 02:35:26;;;;;;;30.27;5.50;;;8.80;99.90;;;;;;4969030;28;20239;-87
2021/01/12 02:37:55;;;;;;;26.33;6.47;;;8.80;99.90;;;;;;4971438;28;20196;-92
2021/01/12 02:40:21;;;;;;;20.43;4.47;;;8.90;99.90;;;;;;4973295;28;20209;-90
2021/01/12 02:42:48;;;;;;;17.80;5.17;;;8.90;99.90;;;;;;4973328;28;20196;-88
2021/01/12 02:45:16;;;;;;;20.63;5.63;;;8.90;99.90;;;;;;4972666;28;20200;-88
2021/01/12 02:47:42;;;;;;;28.10;5.03;;;8.90;99.90;;;;;;4973353;28;20235;-90
2021/01/12 02:50:11;;;;;;;24.20;4.67;;;8.90;99.90;;;;;;4973958;28;20201;-89
2021/01/12 02:52:39;;;;;;;24.80;4.90;;;8.90;99.90;;;;;;4972476;28;20319;-91
2021/01/12 02:55:07;;;;;;;23.87;4.77;;;8.90;99.90;;;;;;4970360;28;20319;-84
2021/01/12 02:57:33;;;;;;;18.17;3.90;;;8.90;99.90;;;;;;4967642;28;20209;-87
2021/01/12 03:00:00;;;;;;;20.23;4.83;;;8.90;99.90;;;;;;4967648;28;20232;-88
2021/01/12 03:02:26;;;;;;;24.03;4.50;;;8.90;99.90;;;;;;4982596;28;20274;-87
2021/01/12 03:04:53;;;;;;;19.67;5.13;;;8.90;99.90;;;;;;4988879;28;20255;-86
2021/01/12 03:07:19;;;;;;;21.17;4.57;;;8.90;99.90;;;;;;4990238;28;20207;-85
2021/01/12 03:09:45;;;;;;;22.63;4.93;;;8.90;99.90;;;;;;4990012;28;20231;-88
2021/01/12 03:12:11;;;;;;;28.00;5.67;;;8.90;99.90;;;;;;4998153;22;20242;-87
2021/01/12 03:14:38;;;;;;;15.73;4.23;;;8.90;99.90;;;;;;4990859;28;20224;-84
2021/01/12 03:17:05;;;;;;;19.97;4.30;;;8.90;99.90;;;;;;4991298;28;20211;-86
2021/01/12 03:19:31;;;;;;;18.97;4.20;;;8.90;99.90;;;;;;4990743;28;20212;-86
2021/01/12 03:21:57;;;;;;;20.90;4.10;;;8.90;99.90;;;;;;4991668;28;20203;-90
2021/01/12 03:24:24;;;;;;;21.97;4.67;;;8.90;99.90;;;;;;4991390;28;20208;-86
2021/01/12 03:26:50;;;;;;;21.67;3.50;;;8.90;99.90;;;;;;4990755;28;20191;-85
2021/01/12 03:29:17;;;;;;;16.13;3.47;;;8.90;99.90;;;;;;4982750;28;20204;-84
2021/01/12 03:31:43;;;;;;;16.47;4.07;;;8.90;99.90;;;;;;4990064;28;20207;-88
2021/01/12 03:34:10;;;;;;;26.67;4.80;;;8.90;99.90;;;;;;4989469;28;20282;-85
2021/01/12 03:36:36;;;;;;;18.10;4.10;;;8.90;99.90;;;;;;4989725;28;20211;-89
2021/01/12 03:39:04;;;;;;;16.93;4.07;;;8.80;99.90;;;;;;4994300;28;20195;-85
2021/01/12 03:41:32;;;;;;;19.20;3.40;;;8.80;99.90;;;;;;4994635;28;20204;-87
2021/01/12 03:43:58;;;;;;;13.80;3.13;;;8.80;99.90;;;;;;4997321;28;20295;-85
2021/01/12 03:46:25;;;;;;;18.53;3.13;;;8.80;99.90;;;;;;4989986;28;20225;-83
2021/01/12 03:48:52;;;;;;;15.77;2.77;;;8.80;99.90;;;;;;4990328;28;20265;-85
2021/01/12 03:51:20;;;;;;;12.10;2.43;;;8.80;99.90;;;;;;4983592;28;20800;-89
2021/01/12 03:53:46;;;;;;;21.57;3.83;;;8.80;99.90;;;;;;4970541;28;20236;-83
2021/01/12 03:56:13;;;;;;;19.23;3.43;;;8.80;99.90;;;;;;4970652;28;20616;-85
2021/01/12 03:58:39;;;;;;;15.00;4.00;;;8.80;99.90;;;;;;4974194;28;20232;-89
2021/01/12 04:01:06;;;;;;;12.37;2.93;;;8.80;99.90;;;;;;4975735;28;20910;-84
2021/01/12 04:03:32;;;;;;;8.00;2.40;;;8.80;99.90;;;;;;4974833;28;20212;-88
2021/01/12 04:06:01;;;;;;;13.47;2.33;;;8.70;99.90;;;;;;4975456;28;20196;-87
2021/01/12 04:08:29;;;;;;;16.47;3.70;;;8.80;99.90;;;;;;4974867;28;20293;-87
2021/01/12 04:10:56;;;;;;;15.17;3.10;;;8.70;99.90;;;;;;4972964;28;20230;-86
2021/01/12 04:13:22;;;;;;;18.80;3.33;;;8.70;99.90;;;;;;4969717;28;20247;-86
2021/01/12 04:15:48;;;;;;;12.10;3.53;;;8.70;99.90;;;;;;4969036;28;20240;-87
2021/01/12 04:18:15;;;;;;;17.83;3.90;;;8.70;99.90;;;;;;4970207;28;20211;-87
2021/01/12 04:20:41;;;;;;;15.57;3.30;;;8.70;99.90;;;;;;4975331;28;20197;-90
2021/01/12 04:23:07;;;;;;;17.97;3.93;;;8.70;99.90;;;;;;4976097;28;20205;-87
2021/01/12 04:25:38;;;;;;;16.30;4.57;;;8.70;99.90;;;;;;4976370;28;20204;-91
2021/01/12 04:28:05;;;;;;;17.37;3.60;;;8.70;99.90;;;;;;4976402;28;20185;-90
2021/01/12 04:30:31;;;;;;;14.13;4.10;;;8.70;99.90;;;;;;4975155;28;20208;-87
2021/01/12 04:32:57;;;;;;;19.47;4.17;;;8.70;99.90;;;;;;4975815;28;20209;-89
2021/01/12 04:35:24;;;;;;;21.93;3.03;;;8.70;99.90;;;;;;4974908;28;20228;-88
2021/01/12 04:37:50;;;;;;;13.23;3.33;;;8.70;99.90;;;;;;4975101;28;20212;-89
2021/01/12 04:40:16;;;;;;;16.90;3.50;;;8.70;99.90;;;;;;4974740;28;20205;-89
2021/01/12 04:42:44;;;;;;;21.07;3.20;;;8.70;99.90;;;;;;4975068;28;20204;-89
2021/01/12 04:45:11;;;;;;;16.70;3.43;;;8.70;99.90;;;;;;4975500;28;20287;-90
2021/01/12 04:47:37;;;;;;;12.33;2.37;;;8.70;99.90;;;;;;4975458;28;20229;-90
2021/01/12 04:50:05;;;;;;;20.47;3.70;;;8.70;99.90;;;;;;4975151;28;20205;-91
2021/01/12 04:52:43;;;;;;;24.33;4.63;;;8.70;99.90;;;;;;4973139;28;20219;-91
2021/01/12 04:55:10;;;;;;;9.80;2.43;;;8.70;99.90;;;;;;4974971;28;20223;-92
2021/01/12 04:57:36;;;;;;;16.47;3.00;;;8.70;99.90;;;;;;4974935;28;20201;-90
2021/01/12 05:00:11;;;;;;;20.50;2.87;;;8.60;99.90;;;;;;4974908;28;20224;-89
2021/01/12 05:02:37;;;;;;;15.97;3.20;;;8.60;99.90;;;;;;4974437;28;20287;-89
2021/01/12 05:05:05;;;;;;;17.37;2.50;;;8.60;99.90;;;;;;4973830;28;20507;-89
2021/01/12 05:07:31;;;;;;;16.50;3.27;;;8.60;99.90;;;;;;4974522;28;20200;-90
2021/01/12 05:09:57;;;;;;;15.77;2.70;;;8.60;99.90;;;;;;4974735;28;20201;-87
2021/01/12 05:12:25;;;;;;;13.97;2.53;;;8.50;99.90;;;;;;4974444;28;20225;-90
2021/01/12 05:14:56;;;;;;;16.00;2.40;;;8.60;99.90;;;;;;4974541;28;20324;-89
2021/01/12 05:17:24;;;;;;;17.40;2.90;;;8.60;99.90;;;;;;4974642;28;20205;-90
2021/01/12 05:19:55;;;;;;;13.37;2.47;;;8.50;99.90;;;;;;4974213;28;20204;-90
2021/01/12 05:22:21;;;;;;;21.77;4.80;;;8.50;99.90;;;;;;4974549;28;20232;-90
2021/01/12 05:24:49;;;;;;;12.40;3.70;;;8.50;99.90;;;;;;4974004;28;20284;-88
2021/01/12 05:27:15;;;;;;;11.63;2.30;;;8.50;99.90;;;;;;4974622;28;20437;-89
2021/01/12 05:29:42;;;;;;;16.33;2.53;;;8.50;99.90;;;;;;4974033;28;20259;-89
2021/01/12 05:32:10;;;;;;;15.13;2.60;;;8.50;99.90;;;;;;4974347;28;20201;-89
2021/01/12 05:34:38;;;;;;;12.53;2.63;;;8.40;99.90;;;;;;4973183;28;20233;-90
2021/01/12 05:37:07;;;;;;;9.77;2.00;;;8.40;99.90;;;;;;4973767;28;20197;-89
2021/01/12 05:39:38;;;;;;;14.80;2.77;;;8.40;99.90;;;;;;4973811;28;20205;-88
2021/01/12 05:42:07;;;;;;;18.00;2.83;;;8.40;99.90;;;;;;4974206;28;20208;-92
2021/01/12 05:44:38;;;;;;;20.27;2.53;;;8.40;99.90;;;;;;4973618;28;20268;-91
2021/01/12 05:47:05;;;;;;;15.27;2.83;;;8.40;99.90;;;;;;4973268;28;20227;-89
2021/01/12 05:49:31;;;;;;;8.37;2.80;;;8.40;99.90;;;;;;4973690;28;20216;-88
2021/01/12 05:51:59;;;;;;;17.03;2.93;;;8.40;99.90;;;;;;4973945;28;20201;-84
2021/01/12 05:54:33;;;;;;;12.10;2.43;;;8.40;99.90;;;;;;4972961;28;20883;-91
2021/01/12 05:57:01;;;;;;;16.57;2.73;;;8.40;99.90;;;;;;4974590;28;20519;-89
2021/01/12 05:59:29;;;;;;;20.47;3.27;;;8.40;99.90;;;;;;4973948;28;20225;-90
2021/01/12 06:01:56;;;;;;;11.87;2.33;;;8.40;99.90;;;;;;4973719;28;20620;-89
2021/01/12 06:04:23;;;;;;;15.27;2.27;;;8.40;99.90;;;;;;4973519;28;20201;-89
2021/01/12 06:06:51;;;;;;;17.73;3.10;;;8.30;99.90;;;;;;4973116;28;20201;-89
2021/01/12 06:09:20;;;;;;;13.47;2.93;;;8.40;99.90;;;;;;4973052;28;20213;-85
2021/01/12 06:11:49;;;;;;;9.40;2.43;;;8.30;99.90;;;;;;4972977;28;20227;-87
2021/01/12 06:14:16;;;;;;;9.87;2.53;;;8.30;99.90;;;;;;4973270;28;20225;-89
2021/01/12 06:16:44;;;;;;;6.70;1.50;;;8.20;99.90;;;;;;4973228;28;20212;-90
2021/01/12 06:19:15;;;;;;;5.00;2.20;;;8.10;99.90;;;;;;4973538;28;20197;-91
2021/01/12 06:22:12;;;;;;;8.77;1.80;;;8.10;99.90;;;;;;4971926;28;20209;-89
2021/01/12 06:24:47;;;;;;;6.53;2.10;;;8.00;99.90;;;;;;4973553;28;20881;-88
2021/01/12 06:27:15;;;;;;;7.00;2.50;;;7.90;99.90;;;;;;4973660;28;20200;-91
2021/01/12 06:29:42;;;;;;;9.97;2.60;;;7.90;99.90;;;;;;4972310;28;20216;-91
2021/01/12 06:32:09;;;;;;;6.53;2.03;;;7.80;99.90;;;;;;4973611;28;20762;-90
2021/01/12 06:34:35;;;;;;;13.97;3.17;;;7.80;99.90;;;;;;4973042;28;20227;-90
2021/01/12 06:37:05;;;;;;;14.73;3.40;;;7.80;99.90;;;;;;4973075;28;20204;-87
2021/01/12 06:39:39;;;;;;;10.53;3.00;;;7.80;99.90;;;;;;4973197;28;20216;-88
2021/01/12 06:42:07;;;;;;;8.37;1.90;;;7.80;99.90;;;;;;4973336;28;20189;-89
2021/01/12 06:44:35;;;;;;;12.47;1.83;;;7.70;99.90;;;;;;4973091;28;20197;-88
2021/01/12 06:47:04;;;;;;;26.53;5.17;;;7.70;99.90;;;;;;4973365;28;20232;-87
2021/01/12 06:49:30;;;;;;;7.63;2.13;;;7.60;99.90;;;;;;4972924;28;20208;-91
2021/01/12 06:52:02;;;;;;;8.83;2.67;;;7.60;99.90;;;;;;4973240;28;20200;-93
2021/01/12 06:54:33;;;;;;;11.97;2.77;;;7.50;99.90;;;;;;4972234;28;20232;-90
2021/01/12 06:57:01;;;;;;;11.37;1.60;;;7.40;99.90;;;;;;4972793;28;20621;-85
2021/01/12 06:59:36;;;;;;;10.50;1.63;;;7.30;99.90;;;;;;4972861;28;20208;-89
2021/01/12 07:02:06;;;;;;;11.07;2.30;;;7.30;99.90;;;;;;4971661;28;20212;-90
2021/01/12 07:04:33;;;;;;;6.30;2.17;;;7.20;99.90;;;;;;4972246;28;20275;-90
2021/01/12 07:07:01;;;;;;;10.87;1.73;;;7.20;99.90;;;;;;4972764;28;20515;-85
2021/01/12 07:09:28;;;;;;;10.23;1.53;;;7.10;99.90;;;;;;4972460;28;20201;-88
2021/01/12 07:12:05;;;;;;;7.90;1.43;;;7.10;99.90;;;;;;4972120;28;20248;-87
2021/01/12 07:14:32;;;;;;;8.90;2.17;;;7.10;99.90;;;;;;4972124;28;20632;-89
2021/01/12 07:17:08;;;;;;;14.00;2.73;;;7.10;99.90;;;;;;4972565;28;20314;-86
2021/01/12 07:19:35;;;;;;;9.87;1.67;;;7.00;99.90;;;;;;4972806;28;20204;-86
2021/01/12 07:22:11;;;;;;;11.07;3.00;;;6.90;99.90;;;;;;4972570;28;20849;-88
2021/01/12 07:24:40;;;;;;;8.87;1.20;;;6.90;99.90;;;;;;4971881;28;20196;-89
2021/01/12 07:27:12;;;;;;;6.33;1.20;;;6.80;99.90;;;;;;4972368;28;20215;-87
2021/01/12 07:29:48;;;;;;;8.07;1.40;;;6.80;99.90;;;;;;4972357;28;20205;-87
2021/01/12 07:32:26;;;;;;;7.33;2.07;;;6.80;99.90;;;;;;4971087;28;20223;-88
2021/01/12 07:34:55;;;;;;;6.97;1.67;;;6.80;99.90;;;;;;4971906;28;20228;-87
2021/01/12 07:37:27;;;;;;;8.93;1.60;;;6.80;99.90;;;;;;4971866;28;20275;-87
2021/01/12 07:39:55;;;;;;;5.77;1.30;;;6.80;99.90;;;;;;4972524;28;20192;-87
2021/01/12 07:42:21;;;;;;;12.23;1.97;;;6.70;99.90;;;;;;4972620;28;20211;-88
2021/01/12 07:44:47;;;;;;;11.17;1.97;;;6.70;99.90;;;;;;4972434;28;20628;-88
2021/01/12 07:47:14;;;;;;;12.27;2.33;;;6.70;99.90;;;;;;4971556;28;20224;-88
2021/01/12 07:49:43;;;;;;;14.77;1.90;;;6.70;99.90;;;;;;4972250;28;20267;-87
2021/01/12 07:52:10;;;;;;;8.00;1.50;;;6.70;99.90;;;;;;4972526;28;20692;-88
2021/01/12 07:54:36;;;;;;;7.57;1.17;;;6.70;99.90;;;;;;4972603;28;20239;-88
2021/01/12 07:57:04;;;;;;;7.60;1.23;;;6.70;99.90;;;;;;4973402;28;20640;-88
2021/01/12 07:59:30;;;;;;;4.70;1.37;;;6.60;99.90;;;;;;4973605;28;20192;-87
2021/01/12 08:01:57;;;;;;;6.93;1.37;;;6.70;99.90;;;;;;4974177;28;20200;-87
2021/01/12 08:04:24;;;;;;;8.40;1.90;;;6.60;99.90;;;;;;4972591;28;20358;-88
2021/01/12 08:06:51;;;;;;;9.47;1.40;;;6.70;99.90;;;;;;4971438;28;20193;-87
2021/01/12 08:09:21;;;;;;;7.57;1.43;;;6.70;99.90;;;;;;4973355;28;20211;-88
2021/01/12 08:11:49;;;;;;;12.87;2.50;;;6.70;99.90;;;;;;4973728;28;20236;-88
2021/01/12 08:14:15;;;;;;;4.80;1.33;;;6.60;99.90;;;;;;4974297;28;20228;-88
2021/01/12 08:16:46;;;;;;;10.57;1.50;;;6.70;99.90;;;;;;4972908;28;20255;-87
2021/01/12 08:19:12;;;;;;;10.27;1.90;;;6.70;99.90;;;;;;4985239;28;20224;-86
2021/01/12 08:21:41;;;;;;;10.83;2.43;;;6.70;99.90;;;;;;4982910;28;20514;-87
2021/01/12 08:24:10;;;;;;;9.10;2.20;;;6.70;99.90;;;;;;4983107;28;20212;-88
2021/01/12 08:26:44;;;;;;;5.27;1.53;;;6.80;99.90;;;;;;4976640;28;20212;-87
2021/01/12 08:29:10;;;;;;;7.33;1.80;;;6.70;99.90;;;;;;4973352;28;20216;-87
2021/01/12 08:31:45;;;;;;;6.53;1.23;;;6.80;99.90;;;;;;4971582;28;20866;-88
2021/01/12 08:51:41;;;;;;;5.50;1.30;;;6.70;99.90;;;;;;4827979;29;20809;-89
2021/01/12 08:54:08;;;;;;;4.60;1.00;;;6.60;99.90;;;;;;4896881;29;20521;-88
2021/01/12 08:56:35;;;;;;;10.97;1.67;;;6.60;99.90;;;;;;4933293;29;20224;-88
2021/01/12 08:59:05;;;;;;;8.60;2.10;;;6.60;99.90;;;;;;4948100;29;20214;-91
2021/01/12 09:01:32;;;;;;;4.63;1.20;;;6.60;99.90;;;;;;4952320;29;20204;-88
2021/01/12 09:04:08;;;;;;;9.47;1.67;;;6.60;99.90;;;;;;4953864;29;20205;-90
2021/01/12 09:06:35;;;;;;;7.87;1.47;;;6.50;99.90;;;;;;4952504;29;20244;-88
2021/01/12 09:09:11;;;;;;;7.80;1.30;;;6.50;99.90;;;;;;4954016;29;20194;-90
2021/01/12 09:11:45;;;;;;;3.93;1.23;;;6.50;99.90;;;;;;4952782;29;20328;-89
2021/01/12 09:14:12;;;;;;;7.63;1.40;;;6.50;99.90;;;;;;5020962;23;20241;-90
2021/01/12 09:16:40;;;;;;;5.50;0.90;;;6.40;99.90;;;;;;5032693;28;20250;-91
2021/01/12 09:19:15;;;;;;;8.73;1.30;;;6.40;99.90;;;;;;5033611;28;20261;-90
2021/01/12 09:21:41;;;;;;;6.53;1.50;;;6.40;99.90;;;;;;5032728;28;20210;-88
2021/01/12 09:24:18;;;;;;;7.87;1.60;;;6.40;99.90;;;;;;5032382;28;20198;-90
2021/01/12 09:26:44;;;;;;;14.87;3.20;;;6.40;99.90;;;;;;5032420;28;20644;-89
2021/01/12 09:29:11;;;;;;;8.73;1.50;;;6.50;99.90;;;;;;5033164;28;20210;-92
2021/01/12 09:31:46;;;;;;;5.97;1.47;;;6.50;99.90;;;;;;5031847;28;20202;-88
2021/01/12 09:34:19;;;;;;;8.87;1.40;;;6.50;99.90;;;;;;5025814;28;20218;-92
2021/01/12 09:36:46;;;;;;;8.40;1.20;;;6.50;99.90;;;;;;5012461;28;20563;-90
2021/01/12 09:39:12;;;;;;;6.23;1.43;;;6.50;99.90;;;;;;5024600;28;20623;-91
2021/01/12 09:41:40;;;;;;;5.77;1.23;;;6.50;99.90;;;;;;5032627;28;20260;-87
2021/01/12 09:44:07;;;;;;;4.80;1.77;;;6.40;99.90;;;;;;5032654;28;20630;-88
2021/01/12 09:46:34;;;;;;;5.90;1.23;;;6.40;99.90;;;;;;5032329;28;20234;-90
2021/01/12 09:49:01;;;;;;;9.77;1.53;;;6.30;99.90;;;;;;5032410;28;20187;-90
2021/01/12 09:51:27;;;;;;;6.70;1.53;;;6.30;99.90;;;;;;5032982;28;20607;-89
2021/01/12 09:53:53;;;;;;;7.20;1.50;;;6.30;99.90;;;;;;5031814;28;20230;-91
2021/01/12 09:56:21;;;;;;;14.27;1.67;;;6.20;99.90;;;;;;5031037;28;20226;-89
2021/01/12 09:58:50;;;;;;;10.40;2.43;;;6.30;99.90;;;;;;5032132;28;20202;-90
2021/01/12 10:01:17;;;;;;;11.93;1.70;;;6.30;99.90;;;;;;5014875;28;20202;-86
2021/01/12 10:03:43;;;;;;;8.93;2.03;;;6.40;99.90;;;;;;5031886;28;20921;-89
2021/01/12 10:06:16;;;;;;;8.43;2.13;;;6.40;99.90;;;;;;5031018;28;20207;-89
2021/01/12 10:08:42;;;;;;;7.07;1.30;;;6.40;99.90;;;;;;5032117;28;20186;-89
2021/01/12 10:11:09;;;;;;;11.43;1.93;;;6.40;99.90;;;;;;5031904;28;20207;-91
2021/01/12 10:13:35;;;;;;;9.50;1.40;;;6.40;99.90;;;;;;5021370;28;20234;-90
2021/01/12 10:16:03;;;;;;;8.43;1.90;;;6.40;99.90;;;;;;5012036;28;20219;-88
2021/01/12 10:18:29;;;;;;;9.80;1.40;;;6.40;99.90;;;;;;5011297;28;20211;-91
2021/01/12 10:20:55;;;;;;;7.70;1.10;;;6.50;99.90;;;;;;5011735;28;20223;-87
2021/01/12 10:23:22;;;;;;;7.07;2.17;;;6.40;99.90;;;;;;5011713;28;20245;-83
2021/01/12 10:25:48;;;;;;;8.37;1.47;;;6.50;99.90;;;;;;5010403;28;20580;-88
2021/01/12 10:28:15;;;;;;;7.07;1.20;;;6.50;99.90;;;;;;5010423;28;20719;-88
2021/01/12 10:30:42;;;;;;;5.20;1.53;;;6.50;99.90;;;;;;5010205;28;20510;-91
2021/01/12 10:33:09;;;;;;;10.97;1.50;;;6.50;99.90;;;;;;5010787;28;20292;-90
2021/01/12 10:35:36;;;;;;;12.57;1.63;;;6.50;99.90;;;;;;5011415;28;20258;-87
2021/01/12 10:38:02;;;;;;;7.37;1.30;;;6.50;99.90;;;;;;5011561;28;20250;-88
2021/01/12 10:40:28;;;;;;;10.47;1.60;;;6.60;99.90;;;;;;5010230;28;20204;-84
2021/01/12 10:42:55;;;;;;;5.63;1.03;;;6.60;99.90;;;;;;5010223;28;20203;-85
2021/01/12 10:45:22;;;;;;;6.43;1.10;;;6.70;99.90;;;;;;5010751;28;20230;-85
2021/01/12 10:47:49;;;;;;;9.70;1.50;;;6.80;99.90;;;;;;5010897;28;20240;-88
2021/01/12 10:50:18;;;;;;;3.93;0.90;;;6.80;99.90;;;;;;5011262;28;20199;-84
2021/01/12 10:52:45;;;;;;;11.20;1.67;;;6.70;99.90;;;;;;5010128;28;20210;-83
2021/01/12 10:55:12;;;;;;;3.10;1.30;;;6.80;99.90;;;;;;5009400;28;20227;-90
2021/01/12 10:57:43;;;;;;;7.87;1.80;;;6.80;99.90;;;;;;5010633;28;20210;-82
2021/01/12 11:00:11;;;;;;;6.10;1.40;;;6.80;99.90;;;;;;5011204;28;20203;-88
2021/01/12 11:02:38;;;;;;;5.50;1.10;;;6.90;99.90;;;;;;5010188;28;20215;-85
2021/01/12 11:05:05;;;;;;;7.93;1.40;;;7.00;99.90;;;;;;5010451;28;20204;-91
2021/01/12 11:07:33;;;;;;;5.67;1.57;;;7.00;99.90;;;;;;5009548;28;20249;-82
2021/01/12 11:09:59;;;;;;;2.97;0.90;;;7.00;99.90;;;;;;5009448;28;20205;-86
2021/01/12 11:12:26;;;;;;;8.07;1.23;;;7.00;99.90;;;;;;5010579;28;20207;-85
2021/01/12 11:14:55;;;;;;;9.00;2.17;;;7.10;99.90;;;;;;4990593;28;20535;-87
2021/01/12 11:17:21;;;;;;;8.77;1.40;;;7.10;99.90;;;;;;4991236;28;20617;-89
2021/01/12 11:19:48;;;;;;;5.03;1.10;;;7.10;99.90;;;;;;4991569;28;20199;-87
2021/01/12 11:22:15;;;;;;;4.43;1.00;;;7.20;99.90;;;;;;4991569;28;20214;-89
2021/01/12 11:24:42;;;;;;;8.63;1.50;;;7.10;99.90;;;;;;4990247;28;20211;-90
2021/01/12 11:27:10;;;;;;;6.60;2.10;;;7.10;99.90;;;;;;4985493;28;20204;-91
2021/01/12 11:29:37;;;;;;;3.77;1.10;;;7.10;99.90;;;;;;4989255;28;20469;-90
2021/01/12 11:32:05;;;;;;;5.63;1.10;;;7.20;99.90;;;;;;4991187;28;20196;-87
2021/01/12 11:34:31;;;;;;;5.10;1.27;;;7.20;99.90;;;;;;4998037;28;20307;-89
2021/01/12 11:36:58;;;;;;;4.53;1.10;;;7.20;99.90;;;;;;4990098;28;20204;-86
2021/01/12 11:39:24;;;;;;;9.60;1.20;;;7.20;99.90;;;;;;4991276;28;20274;-88
2021/01/12 11:41:53;;;;;;;8.13;1.93;;;7.20;99.90;;;;;;4990599;28;20559;-90
2021/01/12 11:44:21;;;;;;;4.93;1.10;;;7.30;99.90;;;;;;4982228;28;20208;-90
2021/01/12 11:46:47;;;;;;;6.50;1.20;;;7.30;99.90;;;;;;4990511;28;20219;-90
2021/01/12 11:49:14;;;;;;;9.87;2.10;;;7.40;99.90;;;;;;4990599;28;20294;-91
2021/01/12 11:51:41;;;;;;;8.77;1.37;;;7.50;99.90;;;;;;4991240;28;20195;-89
2021/01/12 11:54:09;;;;;;;10.83;1.97;;;7.60;99.90;;;;;;4990758;28;20241;-90
2021/01/12 11:56:37;;;;;;;8.27;2.03;;;7.70;99.90;;;;;;4990852;28;20247;-89
2021/01/12 11:59:04;;;;;;;5.83;1.40;;;7.60;99.90;;;;;;4991160;28;20188;-88
2021/01/12 12:01:40;;;;;;;6.63;1.30;;;7.60;99.90;;;;;;4991147;28;20211;-88
2021/01/12 12:04:07;;;;;;;11.70;2.10;;;7.50;99.90;;;;;;4990412;28;20211;-88
2021/01/12 12:06:33;;;;;;;14.27;3.37;;;7.50;99.90;;;;;;4991097;28;20246;-92
2021/01/12 12:08:59;;;;;;;6.20;2.07;;;7.40;99.90;;;;;;4991188;28;20879;-88
2021/01/12 12:11:26;;;;;;;3.63;1.03;;;7.40;99.90;;;;;;4990606;28;20196;-85
2021/01/12 12:13:52;;;;;;;7.80;1.93;;;7.40;99.90;;;;;;4990850;28;20251;-88
2021/01/12 12:16:20;;;;;;;10.37;1.90;;;7.50;99.90;;;;;;4990284;28;20502;-92
2021/01/12 12:18:46;;;;;;;7.93;1.73;;;7.50;99.90;;;;;;4991723;28;20526;-87
2021/01/12 12:21:14;;;;;;;10.37;1.80;;;7.30;99.90;;;;;;4994748;28;20584;-91
2021/01/12 12:23:41;;;;;;;10.13;2.00;;;7.30;99.90;;;;;;4994056;28;20235;-84
2021/01/12 12:26:09;;;;;;;7.10;1.70;;;7.20;99.90;;;;;;4994265;28;20216;-89
2021/01/12 12:28:35;;;;;;;4.13;1.10;;;7.10;99.90;;;;;;4993666;28;20618;-89
2021/01/12 12:31:01;;;;;;;8.43;2.03;;;7.10;99.90;;;;;;4994144;28;20295;-88
2021/01/12 12:33:29;;;;;;;7.93;1.80;;;7.10;99.90;;;;;;4994578;28;20204;-87
2021/01/12 12:35:55;;;;;;;7.83;2.00;;;7.00;99.90;;;;;;4994203;28;20231;-88
2021/01/12 12:38:21;;;;;;;7.87;1.80;;;7.10;99.90;;;;;;4994264;28;20255;-86
2021/01/12 12:40:48;;;;;;;9.90;1.80;;;7.20;99.90;;;;;;4992738;28;20196;-86
2021/01/12 12:43:14;;;;;;;13.90;1.70;;;7.30;99.90;;;;;;4994231;28;20212;-86
2021/01/12 12:45:44;;;;;;;9.77;1.83;;;7.40;99.90;;;;;;4992837;28;20203;-86
2021/01/12 12:48:11;;;;;;;9.90;1.60;;;7.40;99.90;;;;;;5011977;28;20911;-87
2021/01/12 12:50:38;;;;;;;12.77;2.03;;;7.40;99.90;;;;;;5013370;28;20207;-87
2021/01/12 12:53:05;;;;;;;11.20;2.40;;;7.40;99.90;;;;;;5012444;28;20207;-88
2021/01/12 12:55:31;;;;;;;10.43;2.03;;;7.30;99.90;;;;;;5012409;28;20223;-87
2021/01/12 12:57:58;;;;;;;13.07;4.33;;;7.40;99.90;;;;;;5012060;28;20729;-92
2021/01/12 13:00:24;;;;;;;11.20;2.70;;;7.50;99.90;;;;;;5013051;28;20207;-87
2021/01/12 13:02:51;;;;;;;8.67;1.97;;;7.60;99.90;;;;;;5012915;28;20211;-85
2021/01/12 13:05:18;;;;;;;12.53;1.87;;;7.60;99.90;;;;;;5012768;28;20203;-83
2021/01/12 13:07:47;;;;;;;9.47;1.90;;;7.60;99.90;;;;;;5013476;28;20199;-89
2021/01/12 13:10:14;;;;;;;13.73;2.03;;;7.50;99.90;;;;;;5013528;28;20195;-85